Time;durP1;ratioP1;P1;durP2;ratioP2;P2;SDS_P1;SDS_P2;PMS_P1;PMS_P2;Temp;Humidity;BMP_temperature;BMP_pressure;BME280_temperature;BME280_humidity;BME280_pressure;Samples;Min_cycle;Max_cycle;Signal;HPM_P1;HPM_P2
2023/12/03 00:00:13;;;;;;;8.88;6.00;;;6.40;99.90;;;;;;5001433;28;20050;-80
2023/12/03 00:02:42;;;;;;;10.85;5.55;;;6.40;99.90;;;;;;5000631;28;20045;-80
2023/12/03 00:05:12;;;;;;;8.85;5.97;;;6.60;99.90;;;;;;5001316;28;20545;-80
2023/12/03 00:07:40;;;;;;;9.77;5.97;;;6.50;99.90;;;;;;5000729;28;20042;-81
2023/12/03 00:10:09;;;;;;;8.80;5.10;;;6.50;99.90;;;;;;4984631;28;20668;-80
2023/12/03 00:12:38;;;;;;;9.55;5.50;;;6.50;99.90;;;;;;4982809;28;20046;-80
2023/12/03 00:15:07;;;;;;;8.48;5.40;;;6.40;99.90;;;;;;4983266;28;20060;-80
2023/12/03 00:17:35;;;;;;;8.18;5.82;;;6.40;99.90;;;;;;4999945;28;20034;-80
2023/12/03 00:20:03;;;;;;;7.75;5.15;;;6.40;99.90;;;;;;5001517;28;20050;-80
2023/12/03 00:22:32;;;;;;;24.40;14.75;;;6.30;99.90;;;;;;5002024;28;20030;-80
2023/12/03 00:25:00;;;;;;;10.55;7.00;;;6.40;99.90;;;;;;4999244;28;20082;-79
2023/12/03 00:27:27;;;;;;;8.82;5.70;;;6.30;99.90;;;;;;4984004;28;20050;-79
2023/12/03 00:29:55;;;;;;;9.45;5.65;;;6.30;99.90;;;;;;5001788;28;20045;-79
2023/12/03 00:32:22;;;;;;;9.68;6.47;;;6.20;99.90;;;;;;5000079;28;20045;-79
2023/12/03 00:34:50;;;;;;;7.95;5.20;;;6.20;99.90;;;;;;4983250;28;20050;-79
2023/12/03 00:37:17;;;;;;;7.63;5.32;;;6.20;99.90;;;;;;5001090;28;20053;-80
2023/12/03 00:39:46;;;;;;;7.18;5.03;;;6.20;99.90;;;;;;5000557;28;20053;-81
2023/12/03 00:42:14;;;;;;;8.98;4.85;;;6.20;99.90;;;;;;4999840;28;20048;-80
2023/12/03 00:44:42;;;;;;;7.28;4.63;;;6.10;99.90;;;;;;4999894;28;20116;-80
2023/12/03 00:47:09;;;;;;;7.78;5.13;;;6.20;99.90;;;;;;4982912;28;20038;-80
2023/12/03 00:49:37;;;;;;;7.80;4.95;;;6.20;99.90;;;;;;5001512;28;20133;-80
2023/12/03 00:52:05;;;;;;;6.80;4.35;;;6.20;99.90;;;;;;4999523;28;20046;-80
2023/12/03 00:54:32;;;;;;;8.48;5.15;;;6.30;99.90;;;;;;4998196;28;20118;-80
2023/12/03 00:57:01;;;;;;;7.60;5.03;;;6.30;99.90;;;;;;4999493;28;20050;-79
2023/12/03 00:59:28;;;;;;;6.93;5.00;;;6.20;99.90;;;;;;5003510;28;20050;-79
2023/12/03 01:01:56;;;;;;;7.85;4.90;;;6.20;99.90;;;;;;5003605;28;20108;-80
2023/12/03 01:04:23;;;;;;;7.47;4.50;;;6.10;99.90;;;;;;5000086;28;20030;-80
2023/12/03 01:06:51;;;;;;;6.85;4.90;;;6.10;99.90;;;;;;5006170;28;20053;-80
2023/12/03 01:09:18;;;;;;;8.73;5.28;;;6.00;99.90;;;;;;5001148;28;20046;-81
2023/12/03 01:11:46;;;;;;;7.13;4.40;;;5.80;99.90;;;;;;5001041;28;20038;-80
2023/12/03 01:14:15;;;;;;;5.72;3.83;;;5.80;99.90;;;;;;4999344;28;20042;-80
2023/12/03 01:16:43;;;;;;;6.93;4.65;;;5.80;99.90;;;;;;4981696;28;20615;-80
2023/12/03 01:19:10;;;;;;;7.68;4.85;;;5.70;99.90;;;;;;4982516;28;20494;-80
2023/12/03 01:21:37;;;;;;;7.60;4.47;;;5.70;99.90;;;;;;4999771;28;20130;-80
2023/12/03 01:24:05;;;;;;;6.03;4.30;;;5.60;99.90;;;;;;4999622;28;20046;-80
2023/12/03 01:26:33;;;;;;;6.70;4.30;;;5.50;99.90;;;;;;4998000;28;20041;-79
2023/12/03 01:29:00;;;;;;;8.48;4.70;;;5.50;99.90;;;;;;5000051;28;20034;-79
2023/12/03 01:31:29;;;;;;;9.10;5.43;;;5.50;99.90;;;;;;5000240;28;20046;-80
2023/12/03 01:33:57;;;;;;;7.22;5.38;;;5.60;99.90;;;;;;4999257;28;20045;-79
2023/12/03 01:36:25;;;;;;;7.72;5.32;;;5.40;99.90;;;;;;4982008;28;20046;-80
2023/12/03 01:38:52;;;;;;;8.10;5.55;;;5.60;99.90;;;;;;4999676;28;20049;-80
2023/12/03 01:41:20;;;;;;;8.30;6.05;;;5.60;99.90;;;;;;5000377;28;20053;-81
2023/12/03 01:43:50;;;;;;;9.98;5.82;;;5.60;99.90;;;;;;4998030;28;20047;-79
2023/12/03 01:46:18;;;;;;;8.05;4.80;;;5.70;99.90;;;;;;4997131;28;21005;-80
2023/12/03 01:48:47;;;;;;;6.35;4.45;;;5.70;99.90;;;;;;4999755;28;20048;-80
2023/12/03 01:51:15;;;;;;;6.40;4.47;;;5.60;99.90;;;;;;5001356;28;20061;-81
2023/12/03 01:53:44;;;;;;;5.60;4.20;;;5.60;99.90;;;;;;4999617;28;20073;-80
2023/12/03 01:56:12;;;;;;;6.43;4.45;;;5.60;99.90;;;;;;4997696;28;20037;-81
2023/12/03 01:58:40;;;;;;;8.95;5.80;;;5.60;99.90;;;;;;4999583;28;20042;-81
2023/12/03 02:01:08;;;;;;;6.13;4.25;;;5.60;99.90;;;;;;5000150;28;20042;-80
2023/12/03 02:03:36;;;;;;;5.80;4.07;;;5.60;99.90;;;;;;4998512;28;20042;-81
2023/12/03 02:06:06;;;;;;;6.18;4.00;;;5.60;99.90;;;;;;4999758;28;20038;-80
2023/12/03 02:08:35;;;;;;;6.32;4.07;;;5.50;99.90;;;;;;5000146;28;20057;-80
2023/12/03 02:11:04;;;;;;;7.00;3.95;;;5.40;99.90;;;;;;4997692;28;20052;-81
2023/12/03 02:13:33;;;;;;;5.35;3.80;;;5.50;99.90;;;;;;4999481;28;20042;-79
2023/12/03 02:16:01;;;;;;;5.90;3.78;;;5.40;99.90;;;;;;4999812;28;20057;-79
2023/12/03 02:18:28;;;;;;;5.75;3.95;;;5.40;99.90;;;;;;4999737;28;20069;-79
2023/12/03 02:20:56;;;;;;;7.18;3.90;;;5.30;99.90;;;;;;5000743;28;20118;-80
2023/12/03 02:23:28;;;;;;;10.73;6.80;;;5.30;99.90;;;;;;5001346;28;20046;-79
2023/12/03 02:25:56;;;;;;;5.82;3.85;;;5.20;1.00;;;;;;5004489;28;20498;-81
2023/12/03 02:28:24;;;;;;;7.40;4.10;;;5.20;1.00;;;;;;5007324;28;20064;-80
2023/12/03 02:30:52;;;;;;;9.07;4.28;;;5.20;1.00;;;;;;5011347;28;20053;-81
2023/12/03 02:33:19;;;;;;;6.28;4.32;;;5.30;1.00;;;;;;5010461;28;20045;-80
2023/12/03 02:35:48;;;;;;;6.22;4.07;;;5.20;1.00;;;;;;5014292;28;20042;-80
2023/12/03 02:38:16;;;;;;;5.95;4.05;;;5.30;1.00;;;;;;5018457;28;20521;-80
2023/12/03 02:40:45;;;;;;;6.63;4.28;;;5.30;1.00;;;;;;5014697;28;20051;-80
2023/12/03 02:43:13;;;;;;;6.53;4.32;;;5.30;1.00;;;;;;5007803;28;20038;-80
2023/12/03 02:45:40;;;;;;;6.22;4.53;;;5.30;1.00;;;;;;5004985;28;20042;-80
2023/12/03 02:48:08;;;;;;;6.18;4.13;;;5.20;1.00;;;;;;5003445;28;20049;-79
2023/12/03 02:50:36;;;;;;;6.72;4.22;;;5.30;1.00;;;;;;5002949;28;20049;-79
2023/12/03 02:53:05;;;;;;;6.35;4.32;;;5.30;1.00;;;;;;5002440;28;20046;-80
2023/12/03 02:55:33;;;;;;;5.95;3.92;;;5.20;1.00;;;;;;4999169;28;20070;-79
2023/12/03 02:58:02;;;;;;;6.80;4.30;;;5.30;1.00;;;;;;5014045;23;20050;-75
2023/12/03 03:00:29;;;;;;;7.32;4.55;;;5.40;1.00;;;;;;5001080;28;20042;-75
2023/12/03 03:02:57;;;;;;;6.78;4.25;;;5.30;1.00;;;;;;4986078;28;20573;-76
2023/12/03 03:05:24;;;;;;;6.32;4.30;;;5.30;1.00;;;;;;5005473;28;20561;-76
2023/12/03 03:07:52;;;;;;;7.68;4.55;;;5.40;1.00;;;;;;5002699;28;20136;-75
2023/12/03 03:10:19;;;;;;;7.68;4.43;;;5.40;1.00;;;;;;5004562;28;20038;-77
2023/12/03 03:12:47;;;;;;;8.38;4.78;;;5.40;1.00;;;;;;5020099;28;20062;-76
2023/12/03 03:15:16;;;;;;;6.95;4.35;;;5.20;1.00;;;;;;4989031;28;20085;-75
2023/12/03 03:17:44;;;;;;;7.22;4.85;;;5.30;1.00;;;;;;5004290;28;20037;-77
2023/12/03 03:20:11;;;;;;;7.38;4.47;;;5.20;1.00;;;;;;5003769;28;20070;-77
2023/12/03 03:22:39;;;;;;;7.32;4.40;;;5.30;1.00;;;;;;5004744;28;20037;-77
2023/12/03 03:25:07;;;;;;;8.15;4.30;;;5.30;1.00;;;;;;5001701;28;20129;-77
2023/12/03 03:27:35;;;;;;;8.43;4.85;;;5.10;1.00;;;;;;4985505;28;20684;-77
2023/12/03 03:30:03;;;;;;;7.60;4.47;;;5.10;1.00;;;;;;5005293;28;20104;-77
2023/12/03 03:32:32;;;;;;;5.93;3.95;;;5.10;1.00;;;;;;5004160;28;20125;-77
2023/12/03 03:34:59;;;;;;;6.10;3.78;;;5.20;99.90;;;;;;4982481;28;20049;-77
2023/12/03 03:37:26;;;;;;;6.30;4.18;;;5.20;99.90;;;;;;5003284;28;20073;-77
2023/12/03 03:39:54;;;;;;;6.38;3.78;;;5.20;99.90;;;;;;5002641;28;20042;-76
2023/12/03 03:42:22;;;;;;;7.13;4.25;;;5.20;99.90;;;;;;5003088;28;20130;-76
2023/12/03 03:44:50;;;;;;;7.20;4.97;;;5.20;99.90;;;;;;5003213;28;20042;-76
2023/12/03 03:47:18;;;;;;;7.10;4.13;;;5.30;99.90;;;;;;5011982;28;20483;-77
2023/12/03 03:49:46;;;;;;;7.68;4.72;;;5.30;99.90;;;;;;5012329;28;20070;-78
2023/12/03 03:52:14;;;;;;;7.25;4.65;;;5.30;1.00;;;;;;5003353;28;20133;-76
2023/12/03 03:54:42;;;;;;;8.32;4.88;;;5.20;1.00;;;;;;5002040;28;20042;-76
2023/12/03 03:57:09;;;;;;;7.18;4.95;;;5.20;1.00;;;;;;5006006;28;20493;-78
2023/12/03 03:59:37;;;;;;;7.80;5.57;;;5.30;1.00;;;;;;5000034;28;20108;-77
2023/12/03 04:02:05;;;;;;;6.47;4.72;;;5.20;1.00;;;;;;4984860;28;20133;-77
2023/12/03 04:04:32;;;;;;;9.40;4.85;;;5.10;1.00;;;;;;5002732;28;20510;-77
2023/12/03 04:07:01;;;;;;;8.98;4.68;;;5.10;1.00;;;;;;5002734;28;20045;-76
2023/12/03 04:09:29;;;;;;;7.88;3.92;;;5.10;1.00;;;;;;5001485;28;20038;-76
2023/12/03 04:11:56;;;;;;;7.53;4.80;;;5.10;1.00;;;;;;5002533;28;20132;-77
2023/12/03 04:14:24;;;;;;;19.95;13.52;;;5.10;99.90;;;;;;5001395;28;20482;-77
2023/12/03 04:16:52;;;;;;;12.27;8.30;;;5.10;99.90;;;;;;5002363;28;20050;-77
2023/12/03 04:19:19;;;;;;;6.88;4.93;;;5.00;99.90;;;;;;5000821;28;20043;-76
2023/12/03 04:21:48;;;;;;;5.45;3.50;;;5.00;99.90;;;;;;4984558;28;20042;-76
2023/12/03 04:24:17;;;;;;;6.07;3.67;;;4.90;99.90;;;;;;5000843;28;20049;-77
2023/12/03 04:26:45;;;;;;;7.32;4.35;;;5.00;99.90;;;;;;4998640;28;20069;-77
2023/12/03 04:29:13;;;;;;;7.90;4.53;;;4.90;99.90;;;;;;5004462;28;20132;-77
2023/12/03 04:31:41;;;;;;;7.15;4.07;;;4.90;99.90;;;;;;5000868;28;20132;-78
2023/12/03 04:34:09;;;;;;;6.00;3.97;;;4.90;99.90;;;;;;5001773;28;20037;-78
2023/12/03 04:36:37;;;;;;;6.13;3.80;;;4.90;99.90;;;;;;5002544;28;20076;-77
2023/12/03 04:39:06;;;;;;;6.38;4.68;;;4.80;99.90;;;;;;5003995;28;20050;-76
2023/12/03 04:41:38;;;;;;;7.22;5.20;;;4.80;99.90;;;;;;5003393;28;20063;-75
2023/12/03 04:44:06;;;;;;;9.52;5.20;;;4.80;1.00;;;;;;5007954;28;20088;-75
2023/12/03 04:46:34;;;;;;;7.60;5.28;;;4.80;1.00;;;;;;5019798;28;20112;-76
2023/12/03 04:49:02;;;;;;;7.18;4.95;;;4.70;1.00;;;;;;5000727;28;20096;-76
2023/12/03 04:51:31;;;;;;;7.55;5.68;;;4.70;1.00;;;;;;4991234;28;20426;-78
2023/12/03 04:53:58;;;;;;;8.40;5.30;;;4.70;1.00;;;;;;5001029;28;20590;-77
2023/12/03 04:56:26;;;;;;;9.02;6.13;;;4.80;1.00;;;;;;5004054;28;20072;-76
2023/12/03 04:58:55;;;;;;;10.85;6.72;;;4.80;1.00;;;;;;5003322;28;20112;-77
2023/12/03 05:01:22;;;;;;;14.50;6.15;;;4.80;1.00;;;;;;4990906;28;20486;-77
2023/12/03 05:03:50;;;;;;;8.30;5.97;;;4.80;1.00;;;;;;5010088;28;20045;-78
2023/12/03 05:06:17;;;;;;;9.95;5.72;;;4.80;1.00;;;;;;4994665;28;20100;-77
2023/12/03 05:08:45;;;;;;;7.90;5.43;;;4.80;1.00;;;;;;5012961;28;20038;-77
2023/12/03 05:11:12;;;;;;;11.45;7.50;;;4.80;1.00;;;;;;5020705;28;20043;-76
2023/12/03 05:13:40;;;;;;;9.52;6.10;;;4.80;1.00;;;;;;5019716;28;20038;-76
2023/12/03 05:16:10;;;;;;;11.13;5.35;;;4.90;1.00;;;;;;5012204;28;20094;-75
2023/12/03 05:18:37;;;;;;;10.18;5.30;;;4.90;1.00;;;;;;4996803;28;20069;-76
2023/12/03 05:21:06;;;;;;;9.50;5.13;;;4.90;99.90;;;;;;5016094;28;20041;-76
2023/12/03 05:23:33;;;;;;;6.85;4.30;;;4.90;99.90;;;;;;5008293;28;20076;-76
2023/12/03 05:26:01;;;;;;;7.55;4.32;;;4.80;99.90;;;;;;5007521;28;20430;-76
2023/12/03 05:28:28;;;;;;;13.57;8.35;;;4.80;99.90;;;;;;5008496;28;20486;-75
2023/12/03 05:30:56;;;;;;;4.88;3.50;;;4.60;99.90;;;;;;5012702;28;20042;-76
2023/12/03 05:33:24;;;;;;;5.50;3.78;;;4.70;99.90;;;;;;4989728;28;20077;-74
2023/12/03 05:35:54;;;;;;;4.80;3.00;;;4.70;99.90;;;;;;4990340;28;20050;-76
2023/12/03 05:38:21;;;;;;;4.28;2.70;;;4.70;87.30;;;;;;5011263;28;20057;-75
2023/12/03 05:40:49;;;;;;;6.70;3.42;;;4.70;43.80;;;;;;5011754;28;20049;-76
2023/12/03 05:43:17;;;;;;;9.05;5.10;;;4.60;17.50;;;;;;5004750;28;20132;-76
2023/12/03 05:45:44;;;;;;;16.13;9.70;;;4.70;4.50;;;;;;5007880;28;20046;-77
2023/12/03 05:48:12;;;;;;;8.15;5.00;;;4.70;11.40;;;;;;5011575;28;20061;-76
2023/12/03 05:50:42;;;;;;;5.82;3.88;;;4.70;1.00;;;;;;4992496;28;20053;-76
2023/12/03 05:53:09;;;;;;;5.72;3.40;;;4.80;1.00;;;;;;5009170;28;20119;-77
2023/12/03 05:55:37;;;;;;;8.02;3.97;;;4.70;1.00;;;;;;5010530;28;20102;-74
2023/12/03 05:58:05;;;;;;;7.40;4.60;;;4.70;1.00;;;;;;5010437;28;20123;-75
2023/12/03 06:00:32;;;;;;;7.75;4.53;;;4.70;1.00;;;;;;5021709;28;20022;-77
2023/12/03 06:03:00;;;;;;;6.38;3.95;;;4.70;1.00;;;;;;5021884;28;20045;-78
2023/12/03 06:05:27;;;;;;;4.68;3.10;;;4.80;1.00;;;;;;5017162;28;20046;-76
2023/12/03 06:07:56;;;;;;;6.25;3.20;;;4.80;1.00;;;;;;5017062;28;20092;-75
2023/12/03 06:10:24;;;;;;;4.70;3.20;;;4.80;1.00;;;;;;4998677;28;20060;-75
2023/12/03 06:12:51;;;;;;;6.40;3.42;;;4.80;1.00;;;;;;5002207;28;20048;-76
2023/12/03 06:15:19;;;;;;;8.32;4.10;;;4.80;1.00;;;;;;4988719;28;20074;-75
2023/12/03 06:17:46;;;;;;;5.57;3.30;;;4.80;1.00;;;;;;5017769;28;20026;-76
2023/12/03 06:20:16;;;;;;;5.20;3.20;;;4.90;1.00;;;;;;5011224;28;20088;-77
2023/12/03 06:22:44;;;;;;;7.55;3.63;;;4.90;1.00;;;;;;5011063;28;20034;-76
2023/12/03 06:25:13;;;;;;;5.80;3.35;;;5.00;1.00;;;;;;5020399;28;20046;-77
2023/12/03 06:27:41;;;;;;;7.28;3.90;;;5.00;1.00;;;;;;5023582;28;20054;-76
2023/12/03 06:30:09;;;;;;;7.85;4.28;;;5.00;1.00;;;;;;5023822;28;20030;-76
2023/12/03 06:32:37;;;;;;;7.03;4.15;;;5.00;1.00;;;;;;5022338;28;20064;-77
2023/12/03 06:35:05;;;;;;;8.13;4.05;;;5.00;1.00;;;;;;5002587;28;20485;-77
2023/12/03 06:37:32;;;;;;;7.03;4.30;;;4.90;1.00;;;;;;5025386;28;20034;-76
2023/12/03 06:40:02;;;;;;;8.60;4.72;;;4.90;1.00;;;;;;5018714;28;20069;-76
2023/12/03 06:42:31;;;;;;;5.93;4.28;;;4.90;1.00;;;;;;5020176;28;20049;-76
2023/12/03 06:44:59;;;;;;;8.57;3.97;;;4.80;1.00;;;;;;5019358;28;20029;-78
2023/12/03 06:47:26;;;;;;;8.88;4.10;;;4.90;1.00;;;;;;5020492;28;20123;-77
2023/12/03 06:49:55;;;;;;;7.80;4.13;;;4.90;1.00;;;;;;5017424;28;20046;-76
2023/12/03 06:52:22;;;;;;;8.63;4.50;;;5.00;1.00;;;;;;5005435;28;20104;-79
2023/12/03 06:54:50;;;;;;;7.43;4.35;;;5.00;1.00;;;;;;5006324;28;20078;-76
2023/12/03 06:57:17;;;;;;;9.18;4.57;;;4.90;1.00;;;;;;5004849;28;20042;-78
2023/12/03 06:59:46;;;;;;;8.75;4.70;;;4.90;1.00;;;;;;5001487;28;20049;-78
2023/12/03 07:02:14;;;;;;;8.18;4.78;;;5.00;1.00;;;;;;5003185;28;20053;-78
2023/12/03 07:04:41;;;;;;;13.00;4.90;;;5.10;1.00;;;;;;5000341;28;20606;-79
2023/12/03 07:07:09;;;;;;;8.70;4.82;;;5.20;1.00;;;;;;5007611;28;20103;-76
2023/12/03 07:09:36;;;;;;;8.40;5.10;;;5.20;1.00;;;;;;5020875;28;20034;-76
2023/12/03 07:12:04;;;;;;;10.27;5.85;;;5.20;1.00;;;;;;5006125;28;20045;-78
2023/12/03 07:14:32;;;;;;;13.77;6.32;;;5.40;1.00;;;;;;4986798;28;20491;-79
2023/12/03 07:17:01;;;;;;;10.05;5.88;;;5.50;1.00;;;;;;5002945;28;20561;-78
2023/12/03 07:19:29;;;;;;;10.77;5.70;;;5.50;1.00;;;;;;5007539;28;20397;-75
2023/12/03 07:21:57;;;;;;;9.07;4.10;;;5.70;1.00;;;;;;5010766;28;20069;-78
2023/12/03 07:24:24;;;;;;;9.02;4.40;;;5.60;1.00;;;;;;5027302;28;20049;-77
2023/12/03 07:26:52;;;;;;;8.85;4.75;;;5.60;1.00;;;;;;5026440;28;20088;-74
2023/12/03 07:29:19;;;;;;;9.05;5.40;;;5.60;1.00;;;;;;5014381;28;20042;-78
2023/12/03 07:31:50;;;;;;;6.45;3.72;;;5.70;1.00;;;;;;5003600;28;20074;-77
2023/12/03 07:34:19;;;;;;;8.52;4.65;;;5.70;1.00;;;;;;5004213;28;20066;-76
2023/12/03 07:36:47;;;;;;;6.38;3.95;;;5.60;1.00;;;;;;5003903;28;20096;-78
2023/12/03 07:39:17;;;;;;;7.18;4.25;;;5.50;1.00;;;;;;4989655;28;20054;-76
2023/12/03 07:41:50;;;;;;;7.88;4.50;;;5.50;1.00;;;;;;5001585;28;20046;-77
2023/12/03 07:44:18;;;;;;;10.75;6.43;;;5.20;1.00;;;;;;5001340;28;20441;-77
2023/12/03 07:46:45;;;;;;;10.52;6.30;;;5.00;1.00;;;;;;5003034;28;20042;-76
2023/12/03 07:49:13;;;;;;;8.02;4.90;;;5.10;1.00;;;;;;5004729;28;20042;-75
2023/12/03 07:51:42;;;;;;;9.40;4.88;;;5.30;1.00;;;;;;5007627;28;20034;-77
2023/12/03 07:54:10;;;;;;;4.38;2.65;;;5.40;1.00;;;;;;4987969;28;20145;-74
2023/12/03 07:56:39;;;;;;;4.78;3.40;;;4.90;1.00;;;;;;5008108;28;20144;-76
2023/12/03 07:59:07;;;;;;;4.88;3.10;;;5.10;1.00;;;;;;5005058;28;20546;-76
2023/12/03 08:01:35;;;;;;;4.40;3.17;;;5.00;1.00;;;;;;5004728;28;20057;-77
2023/12/03 08:04:03;;;;;;;6.28;3.80;;;4.60;1.00;;;;;;4984311;28;20128;-78
2023/12/03 08:06:31;;;;;;;7.45;4.70;;;4.40;1.00;;;;;;5002860;28;20053;-77
2023/12/03 08:09:00;;;;;;;10.50;6.40;;;4.30;1.00;;;;;;5003266;28;20053;-75
2023/12/03 08:11:28;;;;;;;10.23;5.38;;;4.20;1.00;;;;;;5004162;28;20034;-79
2023/12/03 08:13:56;;;;;;;7.28;4.55;;;4.40;1.00;;;;;;5002331;28;20042;-76
2023/12/03 08:16:24;;;;;;;11.57;6.13;;;4.70;1.00;;;;;;5000520;28;20108;-75
2023/12/03 08:18:52;;;;;;;12.75;7.80;;;4.90;1.00;;;;;;5005103;28;20042;-76
2023/12/03 08:21:19;;;;;;;8.85;5.53;;;5.00;1.00;;;;;;5001409;28;20062;-76
2023/12/03 08:23:47;;;;;;;8.52;5.55;;;5.20;1.00;;;;;;5002862;28;20117;-78
2023/12/03 08:26:16;;;;;;;9.23;5.00;;;5.40;1.00;;;;;;5001142;28;20042;-78
2023/12/03 08:28:44;;;;;;;9.40;5.75;;;5.50;1.00;;;;;;5002023;28;20442;-75
2023/12/03 08:31:12;;;;;;;11.30;6.88;;;5.50;1.00;;;;;;4989216;28;20047;-75
2023/12/03 08:33:41;;;;;;;9.10;4.57;;;5.40;1.00;;;;;;4995951;28;20049;-78
2023/12/03 08:36:10;;;;;;;8.40;4.93;;;5.50;1.00;;;;;;4996464;28;20046;-77
2023/12/03 08:38:38;;;;;;;7.65;4.32;;;5.60;1.00;;;;;;4991841;28;20050;-76
2023/12/03 08:41:08;;;;;;;7.93;5.28;;;5.50;1.00;;;;;;4982806;28;20125;-76
2023/12/03 08:43:38;;;;;;;12.38;7.22;;;5.00;1.00;;;;;;5002053;28;20525;-76
2023/12/03 08:46:06;;;;;;;11.75;6.53;;;4.60;1.00;;;;;;4985511;28;20046;-78
2023/12/03 08:48:34;;;;;;;11.40;6.55;;;4.40;1.00;;;;;;5001906;28;20045;-76
2023/12/03 08:51:02;;;;;;;10.95;6.80;;;4.60;1.00;;;;;;4984171;28;20049;-77
2023/12/03 08:53:31;;;;;;;8.38;5.28;;;4.90;1.00;;;;;;5000894;28;20038;-78
2023/12/03 08:56:00;;;;;;;11.48;6.53;;;5.30;1.00;;;;;;5001792;28;20453;-75
2023/12/03 08:58:27;;;;;;;9.55;6.20;;;5.60;1.00;;;;;;5007618;28;20046;-77
2023/12/03 09:00:56;;;;;;;6.65;4.72;;;5.70;1.00;;;;;;4992875;28;20647;-78
2023/12/03 09:03:24;;;;;;;9.07;5.00;;;5.90;1.00;;;;;;5024679;28;20073;-76
2023/12/03 09:05:51;;;;;;;21.70;6.22;;;6.10;1.00;;;;;;5006471;28;20046;-77
2023/12/03 09:08:19;;;;;;;9.27;5.13;;;6.20;1.00;;;;;;4986959;28;20077;-75
2023/12/03 09:10:47;;;;;;;8.15;4.85;;;6.10;1.00;;;;;;4985435;28;20430;-77
2023/12/03 09:13:15;;;;;;;8.98;5.25;;;5.80;1.00;;;;;;5004523;28;20641;-76
2023/12/03 09:15:42;;;;;;;12.68;5.03;;;5.90;1.00;;;;;;4985776;28;20049;-78
2023/12/03 09:18:11;;;;;;;15.30;10.13;;;6.00;1.00;;;;;;5000970;28;20084;-76
2023/12/03 09:20:39;;;;;;;14.23;8.65;;;6.10;1.00;;;;;;4998692;28;20297;-74
2023/12/03 09:23:07;;;;;;;10.23;5.65;;;6.30;1.00;;;;;;5001219;28;20049;-74
2023/12/03 09:25:35;;;;;;;10.43;6.50;;;6.00;1.00;;;;;;5002027;28;20046;-73
2023/12/03 09:28:04;;;;;;;8.45;5.25;;;6.10;1.00;;;;;;4984670;28;20069;-77
2023/12/03 09:30:32;;;;;;;9.27;6.03;;;6.20;1.00;;;;;;4984797;28;20046;-74
2023/12/03 09:32:59;;;;;;;10.38;6.68;;;6.20;1.00;;;;;;5011408;28;20053;-75
2023/12/03 09:35:29;;;;;;;9.25;5.60;;;6.30;1.00;;;;;;4984450;28;20046;-76
2023/12/03 09:37:59;;;;;;;12.90;6.45;;;6.30;1.00;;;;;;4986375;28;20113;-76
2023/12/03 09:40:27;;;;;;;15.32;8.43;;;6.40;1.00;;;;;;5006858;28;20038;-76
2023/12/03 09:42:56;;;;;;;14.00;8.25;;;6.50;1.00;;;;;;4988444;28;20058;-74
2023/12/03 09:45:27;;;;;;;11.20;6.63;;;6.50;1.00;;;;;;5004296;28;20046;-73
2023/12/03 09:48:00;;;;;;;8.82;6.05;;;6.60;1.00;;;;;;4981825;28;20051;-77
2023/12/03 09:50:31;;;;;;;10.18;6.70;;;6.70;1.00;;;;;;4998227;28;20042;-76
2023/12/03 09:52:59;;;;;;;11.15;6.40;;;6.60;1.00;;;;;;4982774;28;20449;-78
2023/12/03 09:55:30;;;;;;;11.10;6.10;;;6.50;1.00;;;;;;4984177;28;20065;-75
2023/12/03 09:58:00;;;;;;;10.38;6.30;;;6.50;1.00;;;;;;4998499;28;20061;-78
2023/12/03 10:00:29;;;;;;;8.38;5.38;;;6.30;1.00;;;;;;4985677;28;20034;-77
2023/12/03 10:02:59;;;;;;;8.40;5.93;;;6.20;1.00;;;;;;4984861;28;20058;-76
2023/12/03 10:05:27;;;;;;;9.50;6.47;;;6.10;1.00;;;;;;5000573;28;20042;-77
2023/12/03 10:07:56;;;;;;;10.95;7.70;;;5.70;1.00;;;;;;5000765;28;20061;-73
2023/12/03 10:10:29;;;;;;;9.70;6.60;;;5.80;1.00;;;;;;4998092;28;20053;-76
2023/12/03 10:12:58;;;;;;;7.40;4.82;;;6.10;1.00;;;;;;4982509;28;20058;-78
2023/12/03 10:15:26;;;;;;;7.03;4.93;;;6.40;1.00;;;;;;4980896;28;20034;-76
2023/12/03 10:17:54;;;;;;;6.53;4.47;;;6.60;1.00;;;;;;5003497;28;20043;-77
2023/12/03 10:20:33;;;;;;;6.13;4.57;;;6.80;1.00;;;;;;5017622;28;20053;-76
2023/12/03 10:23:02;;;;;;;7.50;4.88;;;6.80;1.00;;;;;;5001932;28;20042;-76
2023/12/03 10:25:31;;;;;;;7.35;5.38;;;6.80;1.00;;;;;;5003883;28;20084;-79
2023/12/03 10:28:00;;;;;;;7.28;5.05;;;6.80;1.00;;;;;;5019611;28;20030;-78
2023/12/03 10:30:28;;;;;;;7.68;4.97;;;6.60;1.00;;;;;;5002224;28;20041;-76
2023/12/03 10:32:56;;;;;;;10.52;6.40;;;6.70;1.00;;;;;;4994764;28;20054;-74
2023/12/03 10:35:40;;;;;;;8.45;5.70;;;6.70;1.00;;;;;;4983962;28;20093;-77
2023/12/03 10:38:09;;;;;;;8.20;5.35;;;6.40;1.00;;;;;;4983906;28;20047;-76
2023/12/03 10:40:37;;;;;;;10.00;5.50;;;6.00;1.00;;;;;;4990637;28;20034;-77
2023/12/03 10:43:05;;;;;;;10.13;6.20;;;5.10;1.00;;;;;;5010790;28;20050;-75
2023/12/03 10:45:32;;;;;;;14.50;8.00;;;5.20;1.00;;;;;;4992580;28;20062;-77
2023/12/03 10:48:01;;;;;;;12.18;8.00;;;5.30;1.00;;;;;;5006348;28;20046;-78
2023/12/03 10:50:30;;;;;;;11.88;7.25;;;5.60;1.00;;;;;;4985326;28;20045;-77
2023/12/03 10:53:01;;;;;;;8.98;5.90;;;6.00;1.00;;;;;;5001047;28;20050;-77
2023/12/03 10:55:30;;;;;;;10.82;6.15;;;6.10;1.00;;;;;;5005616;28;20034;-78
2023/12/03 10:58:02;;;;;;;6.38;4.50;;;6.40;1.00;;;;;;5005598;28;20050;-77
2023/12/03 11:00:41;;;;;;;8.25;4.72;;;6.40;1.00;;;;;;5005246;28;20116;-76
2023/12/03 11:03:15;;;;;;;7.20;4.53;;;6.40;1.00;;;;;;4991725;28;20062;-78
2023/12/03 11:05:48;;;;;;;9.95;5.65;;;6.20;1.00;;;;;;5011549;28;20064;-76
2023/12/03 11:08:16;;;;;;;9.27;5.00;;;6.30;1.00;;;;;;5020377;28;20370;-78
2023/12/03 11:10:45;;;;;;;8.15;4.60;;;6.30;1.00;;;;;;4989604;28;20497;-77
2023/12/03 11:13:14;;;;;;;8.98;5.15;;;6.10;1.00;;;;;;4987877;28;20049;-75
2023/12/03 11:15:43;;;;;;;9.02;5.70;;;6.00;1.00;;;;;;5005366;28;20046;-78
2023/12/03 11:18:15;;;;;;;7.90;4.90;;;6.20;1.00;;;;;;4989738;28;20053;-77
2023/12/03 11:20:45;;;;;;;5.68;3.70;;;6.30;1.00;;;;;;4985503;28;20502;-77
2023/12/03 11:23:24;;;;;;;6.70;4.03;;;6.40;1.00;;;;;;5001516;28;20053;-76
2023/12/03 11:26:00;;;;;;;6.88;5.03;;;6.40;1.00;;;;;;4984906;28;20047;-77
2023/12/03 11:28:28;;;;;;;6.63;4.32;;;6.20;1.00;;;;;;4984628;28;20054;-77
2023/12/03 11:30:56;;;;;;;7.45;4.63;;;6.20;1.00;;;;;;4989600;28;20073;-78
2023/12/03 11:33:24;;;;;;;6.65;4.50;;;6.20;1.00;;;;;;4999262;28;20421;-77
2023/12/03 11:35:52;;;;;;;8.38;4.65;;;6.10;1.00;;;;;;4986677;28;20056;-79
2023/12/03 11:38:33;;;;;;;7.90;5.30;;;6.20;1.00;;;;;;5003546;28;20096;-76
2023/12/03 11:41:02;;;;;;;7.93;5.13;;;6.10;1.00;;;;;;5005930;28;20046;-75
2023/12/03 11:43:36;;;;;;;9.52;5.95;;;6.20;1.00;;;;;;5009670;28;20058;-77
2023/12/03 11:46:03;;;;;;;9.88;6.40;;;6.20;1.00;;;;;;5018855;28;20106;-76
2023/12/03 11:48:33;;;;;;;11.82;5.95;;;6.20;1.00;;;;;;4995615;28;20045;-74
2023/12/03 11:51:00;;;;;;;8.48;5.50;;;6.20;1.00;;;;;;4987079;28;20038;-76
2023/12/03 11:53:46;;;;;;;8.93;5.40;;;6.10;1.00;;;;;;5003674;28;20050;-76
2023/12/03 11:56:16;;;;;;;8.45;5.43;;;6.00;1.00;;;;;;4987583;28;20109;-76
2023/12/03 11:58:44;;;;;;;12.88;7.45;;;6.00;1.00;;;;;;5010873;28;20055;-76
2023/12/03 12:01:12;;;;;;;10.20;7.00;;;6.00;1.00;;;;;;5004678;28;20046;-76
2023/12/03 12:03:39;;;;;;;9.93;6.78;;;6.00;1.00;;;;;;5004511;28;20129;-76
2023/12/03 12:06:11;;;;;;;11.45;7.10;;;6.00;1.00;;;;;;5009075;28;20089;-75
2023/12/03 12:08:39;;;;;;;10.27;6.65;;;5.90;1.00;;;;;;4995040;28;20042;-76
2023/12/03 12:11:07;;;;;;;10.23;7.40;;;6.00;1.00;;;;;;4991907;28;20046;-75
2023/12/03 12:13:38;;;;;;;10.63;7.20;;;6.10;1.00;;;;;;5005658;28;20114;-77
2023/12/03 12:16:10;;;;;;;9.85;6.68;;;6.00;1.00;;;;;;5004651;28;20509;-75
2023/12/03 12:18:39;;;;;;;10.57;7.38;;;6.00;1.00;;;;;;5002982;28;20046;-77
2023/12/03 12:21:09;;;;;;;14.40;9.43;;;5.90;1.00;;;;;;4985212;28;20047;-78
2023/12/03 12:23:36;;;;;;;13.45;8.55;;;5.80;1.00;;;;;;5002977;28;20057;-78
2023/12/03 12:26:04;;;;;;;12.65;8.77;;;5.70;1.00;;;;;;4981938;28;20050;-76
2023/12/03 12:28:32;;;;;;;13.93;8.77;;;5.70;1.00;;;;;;4986075;28;20054;-76
2023/12/03 12:31:02;;;;;;;15.68;9.35;;;5.80;1.00;;;;;;5002971;28;20046;-76
2023/12/03 12:33:34;;;;;;;12.93;8.43;;;5.80;1.00;;;;;;5004339;28;20046;-77
2023/12/03 12:36:01;;;;;;;12.15;7.60;;;6.00;1.00;;;;;;5003949;28;20038;-77
2023/12/03 12:38:29;;;;;;;13.52;8.20;;;6.00;1.00;;;;;;5003411;28;20070;-77
2023/12/03 12:40:57;;;;;;;10.27;6.70;;;6.10;1.00;;;;;;5021234;28;20070;-76
2023/12/03 12:43:25;;;;;;;16.70;10.43;;;6.10;1.00;;;;;;4998421;28;20069;-75
2023/12/03 12:45:52;;;;;;;13.60;7.45;;;6.00;1.00;;;;;;5015239;28;20062;-76
2023/12/03 12:48:29;;;;;;;12.95;7.60;;;5.90;1.00;;;;;;5023373;28;20100;-76
2023/12/03 12:50:59;;;;;;;10.50;6.78;;;6.00;1.00;;;;;;5011841;28;20060;-77
2023/12/03 12:53:27;;;;;;;5.20;3.53;;;5.80;1.00;;;;;;4994050;28;20058;-79
2023/12/03 12:55:55;;;;;;;6.65;3.53;;;5.90;1.00;;;;;;5003551;28;20065;-75
2023/12/03 12:58:22;;;;;;;5.97;3.90;;;5.90;1.00;;;;;;5024140;28;20047;-77
2023/12/03 13:00:50;;;;;;;6.03;3.95;;;6.00;1.00;;;;;;5016328;28;20050;-75
2023/12/03 13:03:18;;;;;;;8.73;4.70;;;6.10;1.00;;;;;;4997567;28;20061;-77
2023/12/03 13:05:47;;;;;;;8.10;4.88;;;5.30;1.00;;;;;;5020966;28;20058;-76
2023/12/03 13:08:14;;;;;;;7.78;4.97;;;5.10;1.00;;;;;;5006332;28;20045;-75